createdAt,value
2022-10-30T00:06:54.535Z,89.45
2022-10-30T00:16:57.235Z,89.36
2022-10-30T00:27:01.319Z,89.09
2022-10-30T00:37:04.237Z,89.10
2022-10-30T00:47:13.317Z,88.84
2022-10-30T00:57:16.163Z,88.59
2022-10-30T01:07:20.193Z,88.34
2022-10-30T01:17:40.445Z,88.38
2022-10-30T01:27:54.175Z,88.22
2022-10-30T01:38:03.794Z,88.12
2022-10-30T01:48:30.229Z,87.99
2022-10-30T01:58:40.656Z,88.19
2022-10-30T02:08:44.734Z,88.46
2022-10-30T02:18:47.434Z,88.49
2022-10-30T02:28:51.502Z,88.09
2022-10-30T02:38:55.108Z,88.09
2022-10-30T02:48:59.067Z,87.96
2022-10-30T02:59:01.790Z,87.99
2022-10-30T03:09:05.875Z,88.31
2022-10-30T03:19:08.571Z,88.43
2022-10-30T03:29:12.603Z,88.26
2022-10-30T03:39:15.263Z,88.25
2022-10-30T03:49:19.386Z,88.38
2022-10-30T03:59:22.082Z,88.09
2022-10-30T04:09:26.199Z,88.22
2022-10-30T04:19:28.835Z,88.15
2022-10-30T04:29:32.838Z,88.09
2022-10-30T04:39:35.548Z,88.14
2022-10-30T04:49:39.657Z,88.18
2022-10-30T04:59:42.328Z,88.02
2022-10-30T05:09:46.590Z,88.12
2022-10-30T05:19:49.265Z,88.31
2022-10-30T05:29:53.242Z,88.14
2022-10-30T05:39:55.924Z,88.57
2022-10-30T05:49:59.941Z,88.55
2022-10-30T06:00:02.738Z,88.73
2022-10-30T06:10:07.441Z,88.56
2022-10-30T06:20:11.312Z,89.15
2022-10-30T06:30:15.548Z,88.96
2022-10-30T06:40:18.809Z,88.87
2022-10-30T06:50:24.144Z,89.31
2022-10-30T07:00:27.127Z,89.21
2022-10-30T07:10:31.286Z,89.09
2022-10-30T07:20:35.659Z,89.16
2022-10-30T07:30:39.689Z,89.21
2022-10-30T07:40:42.401Z,89.05
2022-10-30T07:50:46.432Z,89.00
2022-10-30T08:00:49.142Z,88.99
2022-10-30T08:10:53.209Z,88.44
2022-10-30T08:20:55.842Z,88.46
2022-10-30T08:31:01.207Z,87.69
2022-10-30T08:41:03.912Z,87.00
2022-10-30T08:51:08.195Z,86.39
2022-10-30T09:01:10.958Z,85.58
2022-10-30T09:11:15.093Z,84.33
2022-10-30T09:21:17.769Z,84.00
2022-10-30T09:31:21.771Z,83.05
2022-10-30T09:41:40.615Z,82.39
2022-10-30T09:52:11.953Z,82.29
2022-10-30T10:02:28.649Z,81.61
2022-10-30T10:12:40.197Z,81.23
2022-10-30T10:22:49.366Z,79.59
2022-10-30T10:43:39.240Z,78.66
2022-10-30T10:53:45.869Z,77.07
2022-10-30T11:03:58.471Z,73.66
2022-10-30T11:14:01.102Z,48.57
2022-10-30T11:24:16.566Z,34.84
2022-10-30T11:34:29.970Z,30.68
2022-10-30T11:44:36.357Z,31.36
2022-10-30T11:54:44.665Z,26.54
2022-10-30T12:04:49.243Z,28.79
2022-10-30T12:14:52.848Z,37.33
2022-10-30T12:24:58.420Z,40.56
2022-10-30T12:35:02.905Z,42.85
2022-10-30T12:45:14.595Z,47.98
2022-10-30T12:55:22.876Z,53.09
2022-10-30T13:05:32.246Z,56.84
2022-10-30T13:15:38.439Z,57.58
2022-10-30T13:25:53.904Z,59.04
2022-10-30T13:36:03.415Z,60.40
2022-10-30T13:46:26.171Z,59.70
2022-10-30T13:56:29.655Z,61.65
2022-10-30T14:06:41.907Z,63.13
2022-10-30T14:16:46.211Z,64.16
2022-10-30T14:26:53.571Z,65.02
2022-10-30T14:36:56.230Z,66.77
2022-10-30T14:47:21.991Z,68.16
2022-10-30T14:57:47.683Z,69.42
2022-10-30T15:07:57.454Z,70.35
2022-10-30T15:18:03.810Z,71.78
2022-10-30T15:28:08.011Z,72.65
2022-10-30T15:38:11.505Z,73.71
2022-10-30T15:48:23.218Z,74.69
2022-10-30T15:58:26.147Z,76.04
2022-10-30T16:08:30.119Z,77.15
2022-10-30T16:18:35.786Z,78.06
2022-10-30T16:28:39.810Z,78.82
2022-10-30T16:38:42.744Z,79.24
2022-10-30T16:48:51.087Z,80.24
2022-10-30T16:58:55.330Z,80.71
2022-10-30T17:09:00.741Z,80.98
2022-10-30T17:19:38.335Z,81.53
2022-10-30T17:29:48.384Z,81.90
2022-10-30T17:39:52.108Z,82.49
2022-10-30T17:49:56.076Z,82.85
2022-10-30T17:59:58.661Z,82.92
2022-10-30T18:10:02.665Z,83.23
2022-10-30T18:20:06.246Z,83.27
2022-10-30T18:30:11.910Z,83.77
2022-10-30T18:40:15.592Z,83.93
2022-10-30T18:50:22.770Z,83.85
2022-10-30T19:00:34.993Z,83.99
2022-10-30T19:10:45.756Z,84.23
2022-10-30T19:21:03.720Z,84.37
2022-10-30T19:31:09.082Z,84.39
2022-10-30T19:41:11.720Z,84.55
2022-10-30T19:51:15.694Z,84.64
2022-10-30T20:01:18.681Z,84.70
2022-10-30T20:11:22.806Z,84.67
2022-10-30T20:21:28.265Z,85.25
2022-10-30T20:31:32.310Z,85.55
2022-10-30T20:41:35.541Z,85.69
2022-10-30T20:51:39.508Z,86.46
2022-10-30T21:01:42.298Z,87.79
2022-10-30T21:11:46.503Z,88.13
2022-10-30T21:21:49.287Z,88.92
2022-10-30T21:31:53.343Z,89.10
2022-10-30T21:41:55.995Z,88.94
2022-10-30T21:51:59.938Z,89.36
2022-10-30T22:02:02.853Z,88.91
2022-10-30T22:12:07.876Z,89.02
2022-10-30T22:22:11.200Z,89.41
2022-10-30T22:32:15.485Z,89.64
2022-10-30T22:42:18.248Z,89.86
2022-10-30T22:52:22.386Z,89.46
2022-10-30T23:02:25.242Z,89.37
2022-10-30T23:12:29.255Z,89.44
2022-10-30T23:22:31.913Z,89.52
2022-10-30T23:32:35.893Z,89.24
2022-10-30T23:42:38.518Z,89.14
2022-10-30T23:52:42.811Z,88.80
